Greenville, Virginia
Current Conditions -  °F | °C
As of 10:55 PM on Saturday 25 Oct 2014 (Local Time) from KW13 Reporting Station
Clear Clear  
Wind Chill: 61°   Ceiling: Unl
Heat Index: 61°   Visibility: 10mi
Dew Point: 47°   Wind: 10mph
Humidity: 60%   Direction: 270°W
Pressure: 29.79"   Gusts: 16mph
Location:  38°N, 79.16°W
Report Text: KW13 260255Z AUTO 27009G14KT 220V280 10SM CLR 16/08 A2979 RMK AO1 T01600083
Loading
Personal Weather Stations






























Interactive Weather Map
Tropical Storm Tracking
New forecast layout! Learn more

10-Day Weather Forecast

Advertisements
Track Severe Weather on mobile